createdAt,value
2022-10-09T00:00:49.884Z,5.97
2022-10-09T00:03:17.359Z,5.86
2022-10-09T00:05:45.536Z,5.92
2022-10-09T00:08:12.692Z,5.87
2022-10-09T00:10:43.263Z,5.88
2022-10-09T00:13:10.401Z,5.92
2022-10-09T00:15:41.933Z,5.75
2022-10-09T00:18:10.639Z,5.75
2022-10-09T00:20:45.592Z,5.67
2022-10-09T00:23:14.682Z,5.73
2022-10-09T00:25:57.049Z,5.72
2022-10-09T00:28:25.172Z,5.68
2022-10-09T00:30:53.754Z,5.66
2022-10-09T00:33:20.763Z,5.58
2022-10-09T00:35:47.591Z,5.46
2022-10-09T00:38:14.376Z,5.51
2022-10-09T00:40:41.319Z,5.49
2022-10-09T00:43:17.922Z,5.37
2022-10-09T00:45:50.119Z,5.23
2022-10-09T00:48:18.570Z,5.13
2022-10-09T00:50:57.899Z,5.06
2022-10-09T00:53:28.472Z,5.06
2022-10-09T00:55:55.487Z,5.06
2022-10-09T00:58:24.327Z,4.98
2022-10-09T01:00:50.936Z,4.95
2022-10-09T01:03:17.535Z,4.87
2022-10-09T01:06:11.838Z,4.76
2022-10-09T01:08:47.928Z,4.76
2022-10-09T01:11:31.356Z,4.72
2022-10-09T01:14:22.615Z,4.51
2022-10-09T01:17:13.953Z,4.53
2022-10-09T01:19:59.519Z,4.65
2022-10-09T01:22:55.993Z,4.85
2022-10-09T01:25:33.885Z,4.95
2022-10-09T01:28:03.558Z,5.09
2022-10-09T01:30:32.014Z,5.15
2022-10-09T01:32:59.387Z,5.13
2022-10-09T01:35:26.619Z,5.11
2022-10-09T01:37:54.226Z,5.11
2022-10-09T01:40:21.922Z,5.04
2022-10-09T01:42:48.615Z,4.98
2022-10-09T01:45:16.039Z,4.95
2022-10-09T01:47:43.324Z,4.89
2022-10-09T01:50:27.419Z,4.83
2022-10-09T01:53:00.255Z,4.87
2022-10-09T01:55:38.655Z,4.95
2022-10-09T01:58:28.485Z,5.02
2022-10-09T02:01:03.651Z,5.10
2022-10-09T02:03:32.143Z,5.20
2022-10-09T02:06:01.362Z,5.32
2022-10-09T02:08:31.318Z,5.38
2022-10-09T02:11:00.347Z,5.27
2022-10-09T02:13:27.820Z,5.31
2022-10-09T02:16:09.523Z,5.27
2022-10-09T02:18:49.905Z,5.30
2022-10-09T02:21:22.894Z,5.24
2022-10-09T02:23:51.092Z,5.18
2022-10-09T02:26:18.682Z,5.09
2022-10-09T02:28:46.214Z,5.03
2022-10-09T02:31:23.239Z,4.93
2022-10-09T02:33:57.786Z,4.87
2022-10-09T02:36:25.090Z,4.88
2022-10-09T02:38:51.807Z,4.90
2022-10-09T02:41:18.388Z,4.83
2022-10-09T02:43:44.970Z,4.81
2022-10-09T02:46:11.647Z,4.76
2022-10-09T02:48:38.227Z,4.77
2022-10-09T02:51:04.821Z,4.73
2022-10-09T02:53:31.398Z,4.75
2022-10-09T02:55:57.981Z,4.78
2022-10-09T02:58:24.568Z,4.63
2022-10-09T03:00:52.648Z,4.57
2022-10-09T03:03:20.543Z,4.48
2022-10-09T03:05:47.767Z,4.32
2022-10-09T03:08:14.751Z,4.15
2022-10-09T03:10:41.517Z,4.10
2022-10-09T03:13:08.143Z,3.98
2022-10-09T03:15:37.703Z,3.86
2022-10-09T03:18:04.483Z,3.76
2022-10-09T03:20:30.990Z,3.69
2022-10-09T03:22:57.824Z,3.67
2022-10-09T03:25:25.099Z,3.59
2022-10-09T03:27:51.730Z,3.59
2022-10-09T03:30:18.242Z,3.77
2022-10-09T03:32:44.798Z,3.67
2022-10-09T03:35:11.375Z,3.72
2022-10-09T03:37:37.913Z,3.77
2022-10-09T03:40:05.377Z,3.82
2022-10-09T03:42:31.883Z,4.01
2022-10-09T03:45:00.855Z,4.08
2022-10-09T03:47:27.406Z,4.19
2022-10-09T03:49:53.930Z,4.23
2022-10-09T03:52:20.451Z,4.27
2022-10-09T03:54:47.043Z,4.26
2022-10-09T03:57:15.140Z,4.13
2022-10-09T03:59:41.658Z,4.17
2022-10-09T04:02:08.387Z,4.19
2022-10-09T04:04:34.934Z,4.32
2022-10-09T04:07:01.435Z,4.30
2022-10-09T04:09:28.009Z,4.37
2022-10-09T04:11:54.498Z,4.48
2022-10-09T04:14:21.003Z,4.46
2022-10-09T04:16:47.601Z,4.51
2022-10-09T04:19:14.328Z,4.43
2022-10-09T04:21:40.816Z,4.49
2022-10-09T04:24:08.684Z,4.50
2022-10-09T04:26:35.886Z,4.60
2022-10-09T04:29:02.430Z,4.57
2022-10-09T04:31:29.061Z,4.63
2022-10-09T04:33:55.794Z,4.57
2022-10-09T04:36:22.614Z,4.54
2022-10-09T04:38:49.235Z,4.47
2022-10-09T04:41:15.910Z,4.49
2022-10-09T04:43:42.445Z,4.34
2022-10-09T04:46:12.430Z,4.39
2022-10-09T04:48:43.870Z,4.33
2022-10-09T04:51:11.613Z,4.24
2022-10-09T04:53:38.680Z,4.08
2022-10-09T04:56:08.851Z,3.98
2022-10-09T04:58:36.608Z,3.92
2022-10-09T05:01:12.784Z,3.94
2022-10-09T05:03:39.755Z,3.94
2022-10-09T05:06:09.036Z,3.95
2022-10-09T05:08:36.178Z,3.94
2022-10-09T05:11:08.510Z,3.98
2022-10-09T05:13:38.006Z,4.03
2022-10-09T05:16:07.267Z,4.12
2022-10-09T05:18:34.829Z,4.17
2022-10-09T05:21:05.348Z,4.29
2022-10-09T05:23:32.913Z,4.42
2022-10-09T05:26:05.772Z,4.55
2022-10-09T05:28:32.858Z,4.48
2022-10-09T05:30:59.754Z,4.63
2022-10-09T05:33:27.089Z,4.62
2022-10-09T05:35:55.912Z,4.60
2022-10-09T05:38:24.124Z,4.66
2022-10-09T05:40:52.059Z,4.66
2022-10-09T05:43:18.797Z,4.74
2022-10-09T05:45:46.425Z,4.80
2022-10-09T05:48:12.969Z,4.66
2022-10-09T05:50:39.575Z,4.62
2022-10-09T05:53:06.084Z,4.54
2022-10-09T05:55:32.923Z,4.69
2022-10-09T05:57:59.471Z,4.69
2022-10-09T06:00:26.063Z,4.64
2022-10-09T06:02:53.042Z,4.70
2022-10-09T06:05:19.983Z,4.78
2022-10-09T06:07:47.101Z,4.82
2022-10-09T06:10:13.923Z,4.84
2022-10-09T06:12:40.749Z,4.77
2022-10-09T06:15:07.894Z,4.91
2022-10-09T06:17:34.583Z,4.91
2022-10-09T06:20:01.096Z,5.04
2022-10-09T06:22:27.666Z,4.95
2022-10-09T06:24:54.292Z,5.12
2022-10-09T06:27:20.862Z,5.15
2022-10-09T06:29:47.385Z,5.22
2022-10-09T06:32:13.955Z,5.40
2022-10-09T06:34:40.496Z,5.58
2022-10-09T06:37:07.031Z,5.59
2022-10-09T06:39:33.565Z,5.70
2022-10-09T06:42:00.798Z,5.94
2022-10-09T06:44:27.724Z,6.15
2022-10-09T06:46:54.213Z,6.26
2022-10-09T06:49:20.754Z,6.38
2022-10-09T06:51:47.607Z,6.49
2022-10-09T06:54:16.292Z,6.71
2022-10-09T06:56:42.923Z,6.69
2022-10-09T06:59:11.015Z,6.82
2022-10-09T07:01:37.749Z,6.83
2022-10-09T07:04:07.299Z,6.88
2022-10-09T07:06:37.431Z,6.75
2022-10-09T07:09:07.071Z,6.93
2022-10-09T07:11:39.409Z,7.05
2022-10-09T07:14:08.376Z,7.27
2022-10-09T07:16:40.617Z,7.09
2022-10-09T07:19:11.086Z,7.33
2022-10-09T07:21:39.602Z,7.19
2022-10-09T07:24:06.895Z,7.37
2022-10-09T07:26:35.892Z,7.70
2022-10-09T07:29:04.007Z,7.50
2022-10-09T07:31:30.856Z,7.57
2022-10-09T07:33:57.658Z,7.71
2022-10-09T07:36:24.888Z,7.93
2022-10-09T07:38:53.819Z,8.20
2022-10-09T07:41:21.405Z,8.25
2022-10-09T07:43:47.988Z,8.49
2022-10-09T07:46:17.909Z,8.28
2022-10-09T07:48:44.964Z,8.28
2022-10-09T07:51:21.292Z,8.50
2022-10-09T07:53:48.297Z,8.65
2022-10-09T07:56:32.680Z,8.73
2022-10-09T07:59:01.773Z,8.87
2022-10-09T08:01:29.267Z,8.80
2022-10-09T08:03:57.136Z,8.88
2022-10-09T08:06:24.397Z,9.02
2022-10-09T08:08:56.023Z,9.08
2022-10-09T08:11:24.367Z,9.29
2022-10-09T08:13:52.180Z,9.12
2022-10-09T08:16:20.644Z,9.12
2022-10-09T08:18:47.787Z,9.17
2022-10-09T08:21:16.956Z,9.50
2022-10-09T08:23:44.203Z,9.35
2022-10-09T08:26:17.514Z,9.36
2022-10-09T08:28:44.319Z,9.62
2022-10-09T08:31:15.848Z,9.76
2022-10-09T08:33:43.021Z,9.48
2022-10-09T08:36:11.948Z,9.67
2022-10-09T08:38:47.285Z,9.67
2022-10-09T08:41:26.726Z,9.87
2022-10-09T08:44:22.173Z,9.88
2022-10-09T08:46:55.464Z,10.07
2022-10-09T08:49:31.792Z,10.00
2022-10-09T08:52:03.608Z,9.78
2022-10-09T08:54:34.501Z,9.96
2022-10-09T08:57:04.252Z,9.97
2022-10-09T08:59:31.698Z,10.05
2022-10-09T09:02:35.995Z,10.25
2022-10-09T09:05:25.837Z,10.35
2022-10-09T09:08:06.298Z,10.41
2022-10-09T09:10:42.563Z,10.06
2022-10-09T09:13:46.106Z,10.61
2022-10-09T09:16:40.636Z,10.40
2022-10-09T09:19:23.211Z,10.45
2022-10-09T09:21:51.613Z,10.70
2022-10-09T09:24:38.635Z,10.80
2022-10-09T09:27:16.285Z,10.63
2022-10-09T09:29:48.795Z,10.52
2022-10-09T09:32:23.332Z,10.43
2022-10-09T09:34:50.513Z,10.61
2022-10-09T09:37:17.307Z,10.56
2022-10-09T09:40:34.543Z,10.78
2022-10-09T09:42:30.948Z,10.90
2022-10-09T10:19:38.926Z,11.46
2022-10-09T10:22:20.498Z,11.33
2022-10-09T10:24:49.361Z,11.42
2022-10-09T10:27:35.445Z,11.60
2022-10-09T10:30:06.259Z,11.61
2022-10-09T10:32:39.564Z,11.72
2022-10-09T10:35:14.931Z,11.54
2022-10-09T10:38:14.705Z,11.54
2022-10-09T10:40:50.804Z,11.66
2022-10-09T10:43:40.814Z,11.62
2022-10-09T10:46:22.197Z,12.10
2022-10-09T10:48:50.067Z,11.67
2022-10-09T10:51:16.582Z,12.02
2022-10-09T10:54:04.106Z,11.95
2022-10-09T10:56:56.089Z,11.86
2022-10-09T10:59:45.161Z,11.76
2022-10-09T11:02:32.669Z,12.11
2022-10-09T11:05:14.579Z,12.14
2022-10-09T11:07:59.915Z,12.04
2022-10-09T11:10:48.663Z,11.96
2022-10-09T11:13:28.875Z,12.27
2022-10-09T11:16:21.662Z,12.04
2022-10-09T11:19:02.979Z,12.20
2022-10-09T11:21:52.083Z,12.35
2022-10-09T11:24:50.494Z,12.66
2022-10-09T11:27:28.741Z,12.58
2022-10-09T11:30:14.758Z,12.32
2022-10-09T11:33:03.034Z,12.52
2022-10-09T11:35:39.885Z,12.54
2022-10-09T11:38:24.275Z,12.45
2022-10-09T11:40:51.992Z,12.48
2022-10-09T11:43:24.496Z,12.40
2022-10-09T11:46:18.249Z,12.57
2022-10-09T11:49:03.039Z,12.67
2022-10-09T11:51:45.707Z,12.47
2022-10-09T11:54:18.644Z,12.54
2022-10-09T11:57:00.426Z,12.69
2022-10-09T11:59:42.057Z,12.82
2022-10-09T12:02:30.741Z,12.86
2022-10-09T12:04:57.550Z,13.20
2022-10-09T12:07:28.368Z,13.36
2022-10-09T12:10:03.737Z,13.26
2022-10-09T12:12:31.098Z,13.12
2022-10-09T12:14:58.480Z,13.33
2022-10-09T12:17:25.082Z,13.18
2022-10-09T12:20:07.537Z,12.99
2022-10-09T12:22:42.609Z,12.79
2022-10-09T12:25:23.976Z,12.86
2022-10-09T12:27:54.896Z,12.94
2022-10-09T12:30:24.768Z,13.11
2022-10-09T12:33:00.663Z,12.99
2022-10-09T12:35:38.418Z,13.05
2022-10-09T12:38:26.745Z,12.95
2022-10-09T12:40:55.806Z,13.05
2022-10-09T12:43:23.759Z,12.98
2022-10-09T12:45:52.958Z,12.93
2022-10-09T12:48:28.024Z,13.12
2022-10-09T12:50:55.117Z,13.16
2022-10-09T12:53:24.930Z,13.10
2022-10-09T12:55:56.127Z,13.34
2022-10-09T12:58:26.205Z,13.30
2022-10-09T13:00:59.938Z,13.48
2022-10-09T13:03:39.731Z,13.40
2022-10-09T13:06:15.893Z,13.30
2022-10-09T13:08:43.268Z,13.18
2022-10-09T13:11:20.435Z,13.20
2022-10-09T13:13:51.400Z,13.45
2022-10-09T13:16:18.342Z,13.36
2022-10-09T13:18:59.587Z,13.41
2022-10-09T13:21:35.127Z,13.33
2022-10-09T13:24:10.937Z,13.62
2022-10-09T13:26:39.147Z,13.89
2022-10-09T13:29:07.559Z,13.82
2022-10-09T13:31:36.661Z,13.90
2022-10-09T13:34:12.387Z,13.99
2022-10-09T13:36:39.030Z,13.53
2022-10-09T13:39:05.914Z,13.55
2022-10-09T13:41:32.935Z,13.41
2022-10-09T13:43:59.481Z,13.62
2022-10-09T13:46:26.049Z,13.84
2022-10-09T13:48:52.626Z,14.03
2022-10-09T13:51:19.164Z,13.96
2022-10-09T13:53:45.771Z,13.81
2022-10-09T13:56:12.403Z,13.57
2022-10-09T13:58:38.985Z,13.89
2022-10-09T14:01:05.869Z,14.13
2022-10-09T14:03:32.410Z,13.97
2022-10-09T14:06:00.815Z,13.98
2022-10-09T14:08:27.677Z,13.94
2022-10-09T14:10:54.597Z,13.70
2022-10-09T14:13:21.872Z,13.89
2022-10-09T14:15:48.600Z,13.66
2022-10-09T14:18:15.172Z,13.55
2022-10-09T14:20:41.754Z,13.80
2022-10-09T14:23:09.305Z,13.89
2022-10-09T14:25:35.996Z,13.91
2022-10-09T14:28:02.938Z,13.84
2022-10-09T14:30:29.647Z,13.67
2022-10-09T14:32:56.343Z,13.77
2022-10-09T14:35:23.489Z,13.65
2022-10-09T14:37:50.022Z,13.66
2022-10-09T14:40:16.837Z,13.84
2022-10-09T14:42:43.370Z,13.85
2022-10-09T14:45:10.514Z,14.03
2022-10-09T14:47:37.130Z,14.15
2022-10-09T14:50:04.081Z,13.86
2022-10-09T14:52:30.578Z,13.69
2022-10-09T14:54:57.155Z,13.57
2022-10-09T14:57:23.750Z,13.53
2022-10-09T14:59:50.287Z,13.68
2022-10-09T15:02:17.325Z,13.66
2022-10-09T15:04:43.919Z,13.50
2022-10-09T15:07:10.530Z,13.18
2022-10-09T15:09:37.178Z,13.15
2022-10-09T15:12:03.903Z,13.31
2022-10-09T15:14:30.593Z,13.29
2022-10-09T15:16:58.298Z,13.27
2022-10-09T15:19:25.075Z,13.40
2022-10-09T15:21:51.648Z,13.55
2022-10-09T15:24:18.173Z,13.31
2022-10-09T15:26:44.716Z,13.56
2022-10-09T15:29:12.154Z,13.16
2022-10-09T15:31:40.942Z,13.02
2022-10-09T15:34:10.291Z,12.99
2022-10-09T15:36:39.618Z,13.03
2022-10-09T15:39:08.909Z,12.99
2022-10-09T15:41:37.980Z,13.00
2022-10-09T15:44:14.098Z,12.97
2022-10-09T15:46:40.653Z,12.83
2022-10-09T15:49:08.021Z,12.78
2022-10-09T15:51:34.978Z,12.66
2022-10-09T15:54:02.020Z,12.72
2022-10-09T15:56:29.460Z,12.76
2022-10-09T15:58:57.541Z,12.56
2022-10-09T16:14:23.466Z,12.11
2022-10-09T16:16:51.509Z,12.08
2022-10-09T16:19:18.135Z,11.97
2022-10-09T16:21:44.980Z,11.92
2022-10-09T16:24:11.567Z,11.81
2022-10-09T16:26:38.251Z,11.82
2022-10-09T16:29:04.856Z,11.70
2022-10-09T16:31:36.454Z,11.61
2022-10-09T16:34:05.545Z,11.49
2022-10-09T16:36:32.487Z,11.44
2022-10-09T16:38:59.068Z,11.38
2022-10-09T16:41:26.345Z,11.32
2022-10-09T16:43:56.146Z,11.18
2022-10-09T16:46:26.891Z,11.13
2022-10-09T16:48:55.256Z,11.06
2022-10-09T16:51:27.426Z,10.97
2022-10-09T16:53:56.721Z,10.83
2022-10-09T16:56:26.043Z,10.80
2022-10-09T16:59:00.598Z,10.78
2022-10-09T17:01:28.130Z,10.78
2022-10-09T17:03:59.236Z,10.75
2022-10-09T17:06:26.560Z,10.69
2022-10-09T17:08:54.856Z,10.62
2022-10-09T17:11:22.431Z,10.50
2022-10-09T17:13:49.295Z,10.46
2022-10-09T17:16:19.157Z,10.43
2022-10-09T17:18:47.165Z,10.40
2022-10-09T17:21:15.283Z,10.33
2022-10-09T17:23:41.919Z,10.31
2022-10-09T17:26:15.023Z,10.25
2022-10-09T17:28:42.767Z,10.26
2022-10-09T17:31:14.207Z,10.22
2022-10-09T17:33:42.975Z,10.20
2022-10-09T17:36:11.182Z,10.17
2022-10-09T17:38:38.289Z,10.16
2022-10-09T17:41:06.855Z,10.19
2022-10-09T17:43:33.538Z,10.14
2022-10-09T17:46:00.950Z,10.19
2022-10-09T17:48:28.147Z,10.17
2022-10-09T17:50:57.078Z,10.15
2022-10-09T17:53:24.487Z,10.14
2022-10-09T17:55:52.824Z,10.14
2022-10-09T17:58:20.844Z,10.06
2022-10-09T18:00:47.902Z,10.01
2022-10-09T18:03:15.483Z,10.10
2022-10-09T18:05:49.920Z,10.11
2022-10-09T18:08:19.007Z,10.13
2022-10-09T18:10:46.221Z,10.15
2022-10-09T18:13:14.845Z,10.17
2022-10-09T18:15:43.914Z,10.09
2022-10-09T18:18:11.405Z,10.07
2022-10-09T18:20:39.526Z,9.99
2022-10-09T18:23:07.642Z,9.99
2022-10-09T18:25:35.498Z,9.90
2022-10-09T18:28:02.170Z,9.91
2022-10-09T18:30:28.758Z,9.88
2022-10-09T18:32:55.820Z,9.81
2022-10-09T18:35:22.711Z,9.80
2022-10-09T18:37:49.253Z,9.74
2022-10-09T18:40:15.857Z,9.77
2022-10-09T18:42:42.666Z,9.74
2022-10-09T18:45:12.734Z,9.73
2022-10-09T18:47:39.569Z,9.70
2022-10-09T18:50:09.342Z,9.71
2022-10-09T18:52:37.417Z,9.62
2022-10-09T18:55:06.229Z,9.62
2022-10-09T18:57:34.224Z,9.61
2022-10-09T19:00:01.887Z,9.64
2022-10-09T19:02:28.686Z,9.61
2022-10-09T19:04:55.857Z,9.69
2022-10-09T19:07:22.603Z,9.65
2022-10-09T19:09:53.587Z,9.63
2022-10-09T19:12:23.015Z,9.65
2022-10-09T19:14:49.811Z,9.73
2022-10-09T19:17:16.414Z,9.74
2022-10-09T19:19:42.982Z,9.75
2022-10-09T19:22:14.111Z,9.67
2022-10-09T19:24:42.238Z,9.65
2022-10-09T19:27:08.937Z,9.67
2022-10-09T19:29:35.754Z,9.62
2022-10-09T19:32:02.407Z,9.55
2022-10-09T19:34:29.741Z,9.57
2022-10-09T19:36:56.367Z,9.52
2022-10-09T19:39:22.999Z,9.53
2022-10-09T19:41:51.167Z,9.45
2022-10-09T19:44:18.523Z,9.48
2022-10-09T19:46:45.821Z,9.43
2022-10-09T19:49:12.667Z,9.41
2022-10-09T19:51:39.255Z,9.41
2022-10-09T19:54:08.368Z,9.36
2022-10-09T19:56:36.215Z,9.40
2022-10-09T19:59:05.976Z,9.35
2022-10-09T20:01:35.483Z,9.37
2022-10-09T20:04:07.683Z,9.33
2022-10-09T20:06:36.953Z,9.31
2022-10-09T20:09:04.892Z,9.33
2022-10-09T20:11:31.546Z,9.31
2022-10-09T20:13:58.802Z,9.27
2022-10-09T20:16:25.684Z,9.34
2022-10-09T20:18:54.594Z,9.31
2022-10-09T20:21:21.253Z,9.21
2022-10-09T20:23:47.817Z,9.22
2022-10-09T20:26:16.991Z,9.20
2022-10-09T20:28:44.599Z,9.15
2022-10-09T20:31:18.114Z,9.17
2022-10-09T20:33:46.342Z,9.10
2022-10-09T20:36:31.382Z,9.02
2022-10-09T20:39:00.555Z,9.02
2022-10-09T20:41:29.105Z,9.03
2022-10-09T20:43:57.343Z,8.97
2022-10-09T20:46:24.988Z,8.97
2022-10-09T20:48:52.515Z,8.94
2022-10-09T20:51:21.070Z,8.94
2022-10-09T20:53:56.033Z,8.94
2022-10-09T20:56:24.403Z,8.85
2022-10-09T20:58:51.425Z,8.80
2022-10-09T21:01:18.133Z,8.86
2022-10-09T21:03:44.780Z,8.85
2022-10-09T21:06:14.750Z,8.80
2022-10-09T21:08:41.435Z,8.74
2022-10-09T21:11:11.735Z,8.75
2022-10-09T21:13:40.132Z,8.68
2022-10-09T21:16:08.753Z,8.64
2022-10-09T21:18:36.210Z,8.67
2022-10-09T21:21:05.426Z,8.65
2022-10-09T21:23:32.038Z,8.62
2022-10-09T21:25:59.053Z,8.57
2022-10-09T21:28:26.479Z,8.59
2022-10-09T21:30:53.033Z,8.53
2022-10-09T21:33:19.688Z,8.43
2022-10-09T21:35:51.381Z,8.33
2022-10-09T21:38:19.928Z,8.36
2022-10-09T21:40:47.403Z,8.39
2022-10-09T21:43:14.046Z,8.30
2022-10-09T21:45:41.279Z,8.31
2022-10-09T21:48:08.686Z,8.24
2022-10-09T21:50:36.679Z,8.25
2022-10-09T21:53:03.948Z,8.27
2022-10-09T21:55:30.606Z,8.22
2022-10-09T21:57:57.410Z,8.23
2022-10-09T22:00:27.225Z,8.29
2022-10-09T22:02:53.957Z,8.29
2022-10-09T22:05:20.726Z,8.30
2022-10-09T22:07:47.667Z,8.23
2022-10-09T22:10:14.212Z,8.11
2022-10-09T22:12:40.839Z,8.08
2022-10-09T22:15:07.761Z,7.94
2022-10-09T22:17:34.310Z,7.88
2022-10-09T22:20:00.840Z,7.81
2022-10-09T22:22:27.533Z,7.76
2022-10-09T22:24:54.087Z,7.65
2022-10-09T22:27:20.647Z,7.64
2022-10-09T22:29:47.343Z,7.64
2022-10-09T22:32:13.962Z,7.66
2022-10-09T22:34:40.552Z,7.60
2022-10-09T22:37:07.143Z,7.57
2022-10-09T22:39:33.939Z,7.57
2022-10-09T22:42:00.509Z,7.67
2022-10-09T22:44:27.153Z,7.75
2022-10-09T22:46:53.906Z,7.78
2022-10-09T22:49:20.413Z,7.84
2022-10-09T22:51:47.131Z,7.92
2022-10-09T22:54:13.966Z,7.91
2022-10-09T22:56:43.053Z,8.04
2022-10-09T22:59:11.935Z,8.07
2022-10-09T23:01:43.417Z,8.12
2022-10-09T23:04:16.662Z,8.10
2022-10-09T23:06:43.983Z,8.11
2022-10-09T23:09:13.095Z,8.19
2022-10-09T23:11:40.227Z,8.18
2022-10-09T23:14:06.925Z,8.10
2022-10-09T23:16:34.441Z,8.14
2022-10-09T23:19:06.457Z,8.12
2022-10-09T23:21:34.694Z,8.17
2022-10-09T23:24:01.246Z,8.10
2022-10-09T23:26:30.599Z,8.17
2022-10-09T23:29:04.168Z,8.21
2022-10-09T23:31:31.220Z,8.24
2022-10-09T23:33:58.747Z,8.25
2022-10-09T23:36:27.827Z,8.22
2022-10-09T23:38:55.169Z,8.19
2022-10-09T23:41:24.542Z,8.20
2022-10-09T23:43:51.893Z,8.20
2022-10-09T23:46:21.498Z,8.22
2022-10-09T23:48:48.933Z,8.17
2022-10-09T23:51:16.605Z,8.22
2022-10-09T23:53:43.305Z,8.20
2022-10-09T23:56:20.453Z,8.20
2022-10-09T23:58:47.709Z,8.16
